Terminal Aerodrome Forecast
Issued by NWS

Home | Current Version | Previous Version | Text Only | Print | Product List | Glossary On
Versions: 1 2 3 4 5 6 7 8 9 10 11 12 13 14 15
000
FTUS46 KSEW 221730
TAFBFI
TAF
KBFI 221730Z 2218/2318 15005KT P6SM SCT015 BKN020
     FM222000 18005KT P6SM SCT020 BKN035
     FM222200 23005KT P6SM VCSH SCT030 BKN040
      TEMPO 2223/2224 6SM -SHRA BKN030 OVC040
     FM230000 31005KT P6SM VCSH SCT030 BKN040
      TEMPO 2300/2302 6SM -SHRA BKN030 OVC040
     FM230300 04004KT P6SM VCSH SCT030 BKN045
     FM230600 VRB03KT P6SM SCT015 SCT050
     FM231100 12003KT P6SM BCFG SCT005 BKN012=

USA.gov is the U.S. government's official web portal to all federal, state and local government web resources and services.